createdAt,value
2019-05-28T00:00:28.746Z,13.00
2019-05-28T00:02:57.456Z,13.47
2019-05-28T00:05:25.976Z,12.97
2019-05-28T00:07:54.527Z,14.73
2019-05-28T00:10:22.976Z,13.93
2019-05-28T00:12:51.562Z,14.30
2019-05-28T00:15:20.173Z,14.87
2019-05-28T00:17:48.614Z,15.43
2019-05-28T00:20:17.296Z,15.00
2019-05-28T00:22:45.761Z,15.07
2019-05-28T00:25:14.737Z,13.50
2019-05-28T00:27:43.228Z,14.50
2019-05-28T00:30:19.897Z,15.13
2019-05-28T00:32:42.897Z,14.27
2019-05-28T00:35:13.098Z,14.73
2019-05-28T00:37:41.600Z,14.93
2019-05-28T00:40:10.482Z,14.00
2019-05-28T00:42:39.057Z,14.33
2019-05-28T00:45:08.884Z,15.10
2019-05-28T00:47:37.364Z,14.20
2019-05-28T00:50:08.606Z,13.80
2019-05-28T00:52:37.319Z,13.97
2019-05-28T00:55:08.211Z,15.07
2019-05-28T00:57:38.338Z,15.20
2019-05-28T01:00:07.678Z,14.87
2019-05-28T01:02:36.164Z,14.47
2019-05-28T01:05:06.636Z,12.93
2019-05-28T01:07:35.174Z,12.70
2019-05-28T01:10:07.229Z,13.33
2019-05-28T01:12:35.744Z,13.60
2019-05-28T01:15:06.347Z,13.40
2019-05-28T01:17:34.858Z,13.40
2019-05-28T01:20:05.306Z,12.20
2019-05-28T01:22:33.835Z,13.40
2019-05-28T01:25:02.276Z,14.73
2019-05-28T01:27:30.724Z,13.40
2019-05-28T01:29:59.354Z,12.80
2019-05-28T01:32:27.798Z,14.77
2019-05-28T01:34:56.332Z,11.73
2019-05-28T01:37:24.807Z,12.70
2019-05-28T01:39:53.253Z,13.73
2019-05-28T01:42:21.821Z,13.87
2019-05-28T01:44:50.306Z,13.97
2019-05-28T01:47:18.746Z,14.50
2019-05-28T01:49:47.188Z,14.67
2019-05-28T01:52:15.781Z,13.37
2019-05-28T01:54:44.292Z,12.43
2019-05-28T01:57:12.738Z,13.20
2019-05-28T01:59:41.234Z,12.70
2019-05-28T02:02:09.679Z,12.97
2019-05-28T02:04:38.145Z,13.90
2019-05-28T02:07:06.792Z,13.40
2019-05-28T02:09:35.193Z,14.00
2019-05-28T02:12:03.705Z,13.67
2019-05-28T02:14:32.176Z,14.10
2019-05-28T02:17:00.651Z,12.50
2019-05-28T02:19:29.110Z,12.57
2019-05-28T02:21:57.572Z,12.13
2019-05-28T02:24:26.121Z,12.03
2019-05-28T02:26:54.689Z,12.50
2019-05-28T02:29:23.168Z,11.70
2019-05-28T02:31:51.610Z,11.20
2019-05-28T02:34:20.056Z,10.93
2019-05-28T02:36:48.661Z,12.10
2019-05-28T02:39:17.170Z,10.97
2019-05-28T02:41:45.609Z,11.37
2019-05-28T02:44:14.283Z,9.90
2019-05-28T02:46:42.739Z,11.07
2019-05-28T02:49:11.172Z,10.40
2019-05-28T02:51:41.685Z,12.33
2019-05-28T02:54:10.672Z,12.97
2019-05-28T02:56:41.467Z,11.63
2019-05-28T02:59:12.987Z,11.03
2019-05-28T03:01:44.758Z,11.87
2019-05-28T03:04:15.852Z,11.30
2019-05-28T03:06:46.695Z,11.80
2019-05-28T03:09:16.718Z,12.70
2019-05-28T03:11:45.222Z,11.30
2019-05-28T03:14:13.841Z,11.27
2019-05-28T03:16:44.850Z,10.33
2019-05-28T03:19:13.842Z,10.33
2019-05-28T03:21:42.837Z,10.57
2019-05-28T03:24:13.124Z,10.43
2019-05-28T03:26:41.627Z,9.30
2019-05-28T03:29:10.410Z,10.23
2019-05-28T03:31:38.986Z,9.70
2019-05-28T03:34:07.498Z,9.63
2019-05-28T03:36:37.277Z,10.50
2019-05-28T03:39:07.354Z,9.43
2019-05-28T03:41:35.861Z,10.37
2019-05-28T03:44:04.569Z,10.33
2019-05-28T03:46:33.092Z,11.50
2019-05-28T03:49:01.604Z,11.30
2019-05-28T03:51:30.238Z,10.80
2019-05-28T03:53:58.682Z,12.07
2019-05-28T03:56:27.118Z,12.40
2019-05-28T03:58:55.599Z,10.77
2019-05-28T04:01:24.037Z,11.00
2019-05-28T04:03:52.481Z,11.33
2019-05-28T04:06:21.034Z,11.87
2019-05-28T04:08:49.471Z,14.20
2019-05-28T04:11:17.914Z,12.80
2019-05-28T04:13:46.392Z,14.47
2019-05-28T04:16:14.835Z,14.40
2019-05-28T04:18:43.283Z,12.33
2019-05-28T04:21:11.906Z,11.60
2019-05-28T04:23:41.678Z,12.80
2019-05-28T04:26:10.376Z,11.83
2019-05-28T04:28:38.839Z,13.67
2019-05-28T04:31:07.373Z,11.80
2019-05-28T04:33:35.799Z,12.70
2019-05-28T04:36:04.412Z,13.60
2019-05-28T04:38:32.861Z,13.97
2019-05-28T04:41:01.307Z,12.87
2019-05-28T04:43:29.785Z,14.17
2019-05-28T04:45:58.236Z,12.20
2019-05-28T04:48:26.696Z,14.73
2019-05-28T04:50:55.332Z,13.33
2019-05-28T04:53:23.803Z,15.50
2019-05-28T04:55:52.283Z,14.97
2019-05-28T04:58:20.827Z,14.60
2019-05-28T05:00:49.335Z,14.30
2019-05-28T05:03:17.773Z,14.20
2019-05-28T05:05:46.263Z,14.53
2019-05-28T05:08:14.780Z,14.60
2019-05-28T05:10:43.212Z,15.47
2019-05-28T05:13:11.680Z,14.23
2019-05-28T05:15:40.110Z,14.97
2019-05-28T05:18:08.619Z,13.53
2019-05-28T05:20:37.091Z,16.43
2019-05-28T05:23:05.604Z,16.03
2019-05-28T05:25:34.147Z,15.00
2019-05-28T05:28:02.698Z,14.50
2019-05-28T05:30:31.206Z,15.97
2019-05-28T05:33:18.537Z,14.53
2019-05-28T05:35:30.141Z,14.37
2019-05-28T05:37:58.677Z,13.73
2019-05-28T05:40:27.368Z,15.13
2019-05-28T05:42:55.972Z,15.10
2019-05-28T05:45:24.406Z,14.43
2019-05-28T05:47:52.978Z,15.60
2019-05-28T05:50:21.691Z,16.07
2019-05-28T05:52:50.129Z,15.37
2019-05-28T05:55:18.724Z,15.77
2019-05-28T05:57:47.180Z,15.07
2019-05-28T06:00:15.968Z,13.03
2019-05-28T06:02:44.416Z,13.73
2019-05-28T06:05:13.267Z,14.13
2019-05-28T06:07:41.867Z,12.57
2019-05-28T06:10:10.627Z,14.17
2019-05-28T06:12:39.210Z,13.53
2019-05-28T06:15:07.999Z,14.67
2019-05-28T06:17:36.654Z,15.20
2019-05-28T06:20:07.426Z,15.80
2019-05-28T06:22:36.052Z,14.93
2019-05-28T06:25:06.106Z,13.07
2019-05-28T06:27:34.657Z,13.57
2019-05-28T06:30:04.531Z,13.33
2019-05-28T06:32:34.222Z,14.77
2019-05-28T06:35:03.375Z,13.60
2019-05-28T06:37:31.820Z,13.73
2019-05-28T06:40:00.260Z,12.30
2019-05-28T06:42:28.735Z,12.37
2019-05-28T06:44:57.217Z,12.60
2019-05-28T06:47:25.636Z,14.13
2019-05-28T06:49:54.184Z,14.27
2019-05-28T06:52:22.712Z,13.77
2019-05-28T06:54:51.172Z,11.27
2019-05-28T06:57:22.646Z,13.47
2019-05-28T06:59:49.894Z,11.80
2019-05-28T07:02:18.331Z,10.53
2019-05-28T07:04:46.867Z,12.27
2019-05-28T07:07:15.306Z,12.60
2019-05-28T07:09:43.849Z,13.13
2019-05-28T07:12:12.370Z,14.83
2019-05-28T07:14:40.857Z,14.13
2019-05-28T07:17:09.348Z,12.10
2019-05-28T07:19:37.829Z,11.40
2019-05-28T07:22:06.263Z,11.27
2019-05-28T07:24:34.769Z,11.70
2019-05-28T07:27:03.609Z,10.57
2019-05-28T07:29:32.050Z,11.80
2019-05-28T07:32:00.513Z,11.03
2019-05-28T07:34:31.316Z,10.53
2019-05-28T07:36:59.244Z,10.13
2019-05-28T07:39:27.684Z,10.70
2019-05-28T07:41:56.404Z,10.17
2019-05-28T07:44:24.844Z,9.30
2019-05-28T07:46:53.282Z,9.57
2019-05-28T07:49:21.829Z,10.83
2019-05-28T07:51:50.331Z,10.40
2019-05-28T07:54:18.763Z,11.13
2019-05-28T07:56:47.296Z,11.10
2019-05-28T07:59:15.753Z,12.10
2019-05-28T08:01:44.203Z,10.93
2019-05-28T08:04:12.767Z,11.77
2019-05-28T08:06:54.205Z,11.30
2019-05-28T08:09:11.594Z,10.23
2019-05-28T08:11:40.243Z,11.53
2019-05-28T08:14:08.763Z,10.80
2019-05-28T08:16:50.050Z,10.70
2019-05-28T08:19:08.877Z,9.00
2019-05-28T08:21:37.622Z,7.60
2019-05-28T08:24:06.107Z,8.17
2019-05-28T08:26:34.816Z,6.93
2019-05-28T08:29:03.238Z,7.20
2019-05-28T08:31:31.676Z,7.60
2019-05-28T08:34:00.132Z,5.60
2019-05-28T08:36:28.565Z,4.87
2019-05-28T08:38:57.008Z,5.67
2019-05-28T08:41:25.710Z,5.00
2019-05-28T08:43:54.147Z,6.27
2019-05-28T08:46:22.582Z,6.37
2019-05-28T08:48:51.041Z,6.77
2019-05-28T08:51:19.523Z,5.93
2019-05-28T08:53:47.973Z,5.07
2019-05-28T08:56:16.678Z,6.03
2019-05-28T08:58:45.173Z,5.83
2019-05-28T09:01:13.700Z,5.17
2019-05-28T09:03:42.128Z,6.40
2019-05-28T09:06:10.645Z,6.50
2019-05-28T09:08:40.362Z,5.83
2019-05-28T09:11:09.386Z,5.30
2019-05-28T09:13:38.020Z,6.23
2019-05-28T09:16:06.534Z,7.87
2019-05-28T09:18:34.992Z,6.63
2019-05-28T09:21:03.511Z,6.53
2019-05-28T09:23:31.957Z,5.90
2019-05-28T09:26:00.409Z,7.23
2019-05-28T09:28:30.974Z,5.10
2019-05-28T09:30:59.137Z,4.87
2019-05-28T09:33:27.747Z,4.03
2019-05-28T09:36:08.072Z,3.60
2019-05-28T09:38:26.353Z,3.87
2019-05-28T09:40:54.807Z,4.53
2019-05-28T09:43:23.245Z,2.67
2019-05-28T09:45:51.663Z,2.47
2019-05-28T09:48:20.144Z,1.80
2019-05-28T09:50:51.756Z,1.20
2019-05-28T09:53:18.878Z,2.17
2019-05-28T09:55:47.510Z,1.17
2019-05-28T09:58:15.935Z,1.67
2019-05-28T10:00:57.297Z,1.67
2019-05-28T10:03:15.263Z,1.20
2019-05-28T10:05:58.340Z,1.27
2019-05-28T10:08:13.930Z,1.07
2019-05-28T10:10:42.452Z,1.60
2019-05-28T10:13:10.893Z,0.80
2019-05-28T10:15:39.395Z,0.77
2019-05-28T10:18:08.127Z,0.70
2019-05-28T10:20:38.155Z,0.80
2019-05-28T10:23:06.838Z,1.10
2019-05-28T10:25:35.298Z,1.20
2019-05-28T10:28:03.758Z,0.97
2019-05-28T10:30:32.274Z,0.87
2019-05-28T10:33:00.810Z,1.00
2019-05-28T10:35:30.194Z,1.23
2019-05-28T10:37:58.647Z,1.40
2019-05-28T10:40:27.737Z,0.70
2019-05-28T10:42:56.234Z,1.53
2019-05-28T10:45:25.047Z,0.83
2019-05-28T10:47:54.085Z,0.93
2019-05-28T10:50:23.015Z,1.90
2019-05-28T10:52:51.590Z,1.60
2019-05-28T10:55:20.169Z,1.13
2019-05-28T10:57:48.670Z,1.60
2019-05-28T11:00:18.016Z,1.47
2019-05-28T11:02:46.508Z,0.80
2019-05-28T11:05:16.746Z,1.30
2019-05-28T11:07:45.243Z,1.10
2019-05-28T11:10:23.725Z,1.47
2019-05-28T11:12:44.894Z,1.17
2019-05-28T11:15:14.991Z,1.00
2019-05-28T11:17:43.448Z,0.90
2019-05-28T11:20:14.595Z,0.67
2019-05-28T11:22:43.096Z,0.90
2019-05-28T11:25:12.600Z,1.17
2019-05-28T11:27:41.190Z,1.10
2019-05-28T11:30:12.709Z,0.77
2019-05-28T11:32:41.227Z,1.17
2019-05-28T11:35:10.602Z,0.97
2019-05-28T11:37:39.905Z,0.97
2019-05-28T11:40:12.579Z,1.20
2019-05-28T11:42:41.159Z,0.70
2019-05-28T11:45:13.157Z,1.00
2019-05-28T11:47:41.937Z,0.93
2019-05-28T11:50:10.880Z,0.60
2019-05-28T11:52:39.305Z,0.83
2019-05-28T11:55:14.039Z,0.90
2019-05-28T11:57:42.878Z,0.90
2019-05-28T12:00:12.349Z,1.00
2019-05-28T12:02:41.113Z,1.40
2019-05-28T12:05:10.708Z,0.70
2019-05-28T12:07:39.128Z,1.30
2019-05-28T12:10:08.819Z,0.90
2019-05-28T12:12:38.888Z,0.80
2019-05-28T12:15:12.050Z,1.03
2019-05-28T12:17:44.523Z,0.80
2019-05-28T12:20:13.934Z,1.93
2019-05-28T12:22:42.869Z,1.00
2019-05-28T12:25:13.553Z,1.10
2019-05-28T12:27:42.107Z,0.90
2019-05-28T12:30:17.803Z,0.60
2019-05-28T12:32:44.374Z,1.07
2019-05-28T12:35:27.371Z,0.80
2019-05-28T12:37:49.376Z,0.80
2019-05-28T12:40:15.394Z,0.80
2019-05-28T12:42:43.884Z,0.97
2019-05-28T12:45:13.577Z,0.70
2019-05-28T12:47:42.157Z,1.10
2019-05-28T12:50:19.797Z,1.00
2019-05-28T12:52:41.871Z,0.67
2019-05-28T12:55:12.746Z,0.70
2019-05-28T12:57:41.199Z,0.97
2019-05-28T13:00:11.806Z,0.50
2019-05-28T13:02:40.355Z,0.93
2019-05-28T13:05:11.839Z,0.90
2019-05-28T13:07:40.342Z,1.10
2019-05-28T13:10:09.359Z,1.10
2019-05-28T13:12:37.885Z,0.83
2019-05-28T13:15:07.859Z,1.40
2019-05-28T13:17:36.461Z,0.70
2019-05-28T13:20:09.130Z,0.90
2019-05-28T13:22:37.748Z,0.77
2019-05-28T13:25:07.291Z,0.83
2019-05-28T13:27:35.724Z,0.70
2019-05-28T13:30:07.448Z,0.70
2019-05-28T13:32:36.109Z,1.07
2019-05-28T13:35:09.311Z,0.70
2019-05-28T13:37:40.834Z,0.80
2019-05-28T13:40:11.205Z,0.80
2019-05-28T13:42:39.894Z,0.47
2019-05-28T13:45:09.443Z,0.80
2019-05-28T13:47:37.896Z,1.30
2019-05-28T13:50:08.244Z,1.13
2019-05-28T13:52:36.758Z,1.77
2019-05-28T13:55:12.712Z,0.90
2019-05-28T13:57:41.230Z,0.60
2019-05-28T14:00:12.387Z,1.27
2019-05-28T14:02:45.694Z,0.80
2019-05-28T14:05:13.173Z,0.50
2019-05-28T14:07:42.044Z,1.00
2019-05-28T14:10:11.249Z,1.20
2019-05-28T14:12:39.777Z,0.70
2019-05-28T14:15:09.642Z,0.57
2019-05-28T14:17:38.374Z,0.43
2019-05-28T14:20:09.490Z,0.50
2019-05-28T14:22:38.309Z,0.50
2019-05-28T14:25:08.448Z,1.00
2019-05-28T14:27:36.927Z,0.80
2019-05-28T14:30:10.985Z,0.80
2019-05-28T14:32:39.821Z,0.60
2019-05-28T14:35:08.598Z,1.60
2019-05-28T14:37:37.042Z,0.90
2019-05-28T14:40:07.215Z,0.70
2019-05-28T14:42:35.715Z,0.97
2019-05-28T14:45:08.792Z,0.70
2019-05-28T14:47:37.419Z,0.80
2019-05-28T14:50:09.229Z,0.70
2019-05-28T14:52:38.122Z,0.70
2019-05-28T14:55:08.402Z,0.60
2019-05-28T14:57:36.923Z,0.60
2019-05-28T15:00:08.544Z,0.60
2019-05-28T15:02:37.064Z,0.70
2019-05-28T15:05:07.752Z,0.80
2019-05-28T15:07:36.195Z,0.60
2019-05-28T15:10:08.567Z,0.63
2019-05-28T15:12:37.016Z,0.67
2019-05-28T15:15:10.725Z,0.57
2019-05-28T15:17:39.279Z,0.80
2019-05-28T15:20:09.362Z,0.50
2019-05-28T15:22:37.955Z,1.07
2019-05-28T15:25:07.955Z,0.80
2019-05-28T15:27:36.528Z,0.60
2019-05-28T15:30:10.127Z,0.50
2019-05-28T15:32:38.752Z,0.50
2019-05-28T15:35:09.010Z,0.60
2019-05-28T15:37:37.598Z,0.50
2019-05-28T15:40:07.143Z,0.43
2019-05-28T15:42:35.574Z,0.40
2019-05-28T15:45:06.050Z,0.40
2019-05-28T15:47:34.570Z,0.40
2019-05-28T15:50:03.607Z,0.50
2019-05-28T15:52:32.104Z,0.53
2019-05-28T15:55:00.605Z,0.50
2019-05-28T15:57:29.146Z,0.40
2019-05-28T15:59:57.580Z,0.60
2019-05-28T16:02:26.032Z,0.50
2019-05-28T16:04:54.463Z,0.50
2019-05-28T16:07:22.906Z,0.50
2019-05-28T16:09:56.013Z,0.43
2019-05-28T16:12:21.581Z,0.50
2019-05-28T16:14:50.053Z,0.43
2019-05-28T16:17:18.555Z,0.70
2019-05-28T16:19:47.002Z,0.40
2019-05-28T16:22:15.461Z,0.50
2019-05-28T16:24:54.108Z,0.63
2019-05-28T16:27:22.549Z,0.60
2019-05-28T16:29:51.003Z,0.60
2019-05-28T16:32:19.458Z,0.60
2019-05-28T16:34:47.968Z,0.50
2019-05-28T16:37:16.430Z,0.70
2019-05-28T16:39:47.455Z,0.60
2019-05-28T16:42:15.232Z,0.50
2019-05-28T16:44:43.659Z,0.50
2019-05-28T16:47:18.612Z,0.53
2019-05-28T16:49:42.714Z,0.50
2019-05-28T16:52:11.207Z,0.47
2019-05-28T16:54:39.724Z,0.60
2019-05-28T16:57:08.153Z,0.40
2019-05-28T16:59:36.588Z,0.60
2019-05-28T17:02:05.318Z,0.40
2019-05-28T17:04:33.797Z,0.80
2019-05-28T17:07:02.339Z,0.50
2019-05-28T17:09:30.767Z,0.70
2019-05-28T17:11:59.195Z,0.60
2019-05-28T17:14:27.628Z,0.47
2019-05-28T17:16:57.129Z,0.53
2019-05-28T17:19:25.598Z,0.60
2019-05-28T17:21:54.057Z,0.70
2019-05-28T17:24:22.531Z,0.60
2019-05-28T17:26:51.002Z,0.60
2019-05-28T17:29:19.499Z,0.40
2019-05-28T17:31:48.014Z,0.67
2019-05-28T17:34:16.445Z,0.40
2019-05-28T17:36:44.882Z,0.50
2019-05-28T17:39:13.562Z,0.40
2019-05-28T17:41:41.992Z,0.40
2019-05-28T17:44:10.419Z,0.60
2019-05-28T17:46:38.907Z,0.40
2019-05-28T17:49:07.335Z,0.80
2019-05-28T17:51:35.766Z,0.50
2019-05-28T17:54:04.668Z,0.60
2019-05-28T17:56:33.199Z,0.70
2019-05-28T17:59:01.641Z,0.50
2019-05-28T18:01:33.369Z,0.50
2019-05-28T18:04:01.812Z,0.83
2019-05-28T18:06:30.236Z,0.50
2019-05-28T18:08:58.704Z,0.60
2019-05-28T18:11:27.141Z,0.57
2019-05-28T18:13:55.565Z,1.10
2019-05-28T18:16:24.035Z,0.70
2019-05-28T18:18:52.467Z,1.20
2019-05-28T18:21:20.984Z,1.03
2019-05-28T18:23:49.610Z,0.80
2019-05-28T18:26:18.127Z,1.17
2019-05-28T18:28:46.553Z,0.93
2019-05-28T18:31:15.028Z,1.63
2019-05-28T18:33:43.644Z,1.00
2019-05-28T18:36:12.048Z,1.70
2019-05-28T18:38:43.549Z,1.07
2019-05-28T18:41:21.205Z,1.10
2019-05-28T18:43:41.022Z,1.23
2019-05-28T18:46:09.843Z,1.10
2019-05-28T18:48:38.658Z,1.20
2019-05-28T18:51:07.281Z,1.60
2019-05-28T18:53:35.741Z,1.20
2019-05-28T18:56:16.914Z,1.43
2019-05-28T18:58:35.831Z,1.40
2019-05-28T19:01:04.625Z,1.37
2019-05-28T19:03:33.229Z,1.63
2019-05-28T19:06:01.657Z,1.13
2019-05-28T19:08:30.280Z,1.30
2019-05-28T19:10:59.202Z,1.20
2019-05-28T19:13:27.680Z,1.30
2019-05-28T19:15:56.163Z,1.50
2019-05-28T19:18:24.607Z,2.40
2019-05-28T19:20:53.116Z,1.40
2019-05-28T19:23:21.644Z,2.23
2019-05-28T19:25:50.259Z,2.33
2019-05-28T19:28:18.764Z,2.30
2019-05-28T19:30:50.516Z,3.20
2019-05-28T19:33:17.887Z,3.80
2019-05-28T19:35:47.360Z,4.17
2019-05-28T19:38:16.964Z,3.00
2019-05-28T19:40:45.574Z,3.57
2019-05-28T19:43:14.109Z,3.27
2019-05-28T19:45:42.649Z,3.37
2019-05-28T19:48:11.107Z,2.83
2019-05-28T19:50:39.696Z,2.80
2019-05-28T19:53:08.414Z,2.57
2019-05-28T19:55:36.951Z,1.83
2019-05-28T19:58:10.271Z,1.30
2019-05-28T20:00:38.915Z,1.70
2019-05-28T20:03:07.557Z,1.87
2019-05-28T20:05:35.987Z,1.70
2019-05-28T20:08:04.537Z,1.60
2019-05-28T20:10:33.149Z,2.27
2019-05-28T20:13:01.644Z,2.13
2019-05-28T20:15:31.053Z,1.90
2019-05-28T20:17:59.661Z,1.80
2019-05-28T20:20:28.144Z,2.17
2019-05-28T20:22:56.784Z,2.47
2019-05-28T20:25:25.222Z,2.07
2019-05-28T20:27:53.967Z,2.03
2019-05-28T20:30:22.857Z,1.97
2019-05-28T20:32:51.297Z,2.67
2019-05-28T20:35:19.975Z,2.20
2019-05-28T20:37:48.699Z,1.50
2019-05-28T20:40:17.475Z,1.67
2019-05-28T20:42:46.195Z,2.10
2019-05-28T20:45:15.157Z,2.40
2019-05-28T20:47:43.580Z,2.60
2019-05-28T20:50:12.314Z,2.20
2019-05-28T20:52:41.020Z,2.57
2019-05-28T20:55:10.368Z,1.50
2019-05-28T20:57:38.891Z,2.20
2019-05-28T21:00:11.152Z,2.40
2019-05-28T21:02:39.651Z,2.10
2019-05-28T21:05:09.505Z,2.17
2019-05-28T21:07:38.042Z,2.90
2019-05-28T21:10:08.028Z,2.43
2019-05-28T21:12:44.028Z,3.43
2019-05-28T21:15:10.505Z,3.10
2019-05-28T21:17:39.001Z,3.30
2019-05-28T21:20:09.014Z,3.40
2019-05-28T21:22:37.479Z,2.90
2019-05-28T21:25:07.817Z,3.00
2019-05-28T21:27:36.315Z,3.27
2019-05-28T21:30:06.503Z,3.50
2019-05-28T21:32:35.106Z,3.60
2019-05-28T21:35:04.448Z,3.20
2019-05-28T21:37:32.903Z,3.73
2019-05-28T21:40:02.079Z,4.13
2019-05-28T21:42:30.623Z,4.00
2019-05-28T21:45:00.162Z,3.50
2019-05-28T21:47:28.710Z,3.87
2019-05-28T21:49:58.871Z,4.53
2019-05-28T21:52:27.399Z,3.70
2019-05-28T21:54:57.074Z,3.93
2019-05-28T21:57:25.697Z,4.87
2019-05-28T21:59:54.172Z,4.90
2019-05-28T22:02:22.735Z,4.80
2019-05-28T22:04:51.169Z,4.17
2019-05-28T22:07:19.639Z,4.23
2019-05-28T22:09:48.077Z,4.73
2019-05-28T22:12:16.512Z,6.97
2019-05-28T22:14:45.045Z,4.83
2019-05-28T22:17:13.515Z,5.63
2019-05-28T22:19:42.018Z,4.40
2019-05-28T22:22:10.468Z,4.93
2019-05-28T22:24:38.905Z,4.50
2019-05-28T22:27:07.346Z,4.40
2019-05-28T22:29:35.799Z,4.23
2019-05-28T22:32:04.996Z,5.57
2019-05-28T22:34:33.573Z,5.20
2019-05-28T22:37:02.422Z,3.90
2019-05-28T22:39:30.954Z,5.10
2019-05-28T22:41:59.649Z,5.60
2019-05-28T22:44:28.291Z,6.90
2019-05-28T22:46:57.036Z,6.83
2019-05-28T22:49:25.610Z,7.70
2019-05-28T22:51:54.083Z,7.10
2019-05-28T22:54:22.511Z,9.03
2019-05-28T22:56:50.948Z,8.23
2019-05-28T22:59:19.414Z,8.23
2019-05-28T23:01:47.857Z,7.30
2019-05-28T23:04:16.375Z,8.80
2019-05-28T23:06:44.828Z,9.37
2019-05-28T23:09:13.269Z,8.50
2019-05-28T23:11:41.739Z,8.83
2019-05-28T23:14:10.424Z,9.93
2019-05-28T23:16:38.896Z,9.80
2019-05-28T23:19:08.618Z,9.80
2019-05-28T23:21:37.343Z,9.40
2019-05-28T23:24:07.310Z,9.23
2019-05-28T23:26:35.886Z,11.20
2019-05-28T23:29:05.729Z,10.73
2019-05-28T23:31:34.417Z,10.83
2019-05-28T23:34:02.879Z,11.73
2019-05-28T23:36:31.426Z,11.90
2019-05-28T23:38:59.859Z,12.77
2019-05-28T23:41:28.316Z,13.00
2019-05-28T23:44:02.140Z,13.53
2019-05-28T23:46:26.946Z,12.13
2019-05-28T23:48:55.428Z,12.50
2019-05-28T23:51:23.896Z,12.60
2019-05-28T23:53:52.330Z,12.97
2019-05-28T23:56:20.770Z,13.77
2019-05-28T23:58:49.238Z,12.93
